EDDT

Berlin-Tegel International Airport

Berlin, Germany
METAR EDDT 260520Z 22005KT 9999 -RA FEW046 BKN060 08/06 Q1011 NOSIG
Observed Flight Rules
Apr-26 @ 05:20 UTC (34 minutes ago) Visual Flight Rules
Wind Visibility Clouds Conditions
220° at 5 knots 10,000+ meters
  • Few at 4,600' AGL
  • Broken at 6,000' AGL
  • Light Rain
Temperatures Readings
Current 8°C / 46°F
Dewpoint 6°C / 43°F
Humidity 87%
Altimeter 29.85" Hg
Pressure 1011 hPa
Elevation 37
METAR EDDT 260520Z 22005KT 9999 -RA FEW046 BKN060 08/06 Q1011 NOSIG
Observed Flight Rules
Apr-26 @ 05:20 UTC
(34 minutes ago)
VFR
Wind Visibility
220° at 5 knots 10,000+ meters
Clouds
  • Few at 4,600' AGL
  • Broken at 6,000' AGL
Conditions
  • Light Rain
Temperature Dewpoint
8°C / 46°F 6°C / 43°F
Humidity Altimeter Pressure
87% 29.85" Hg 1011 hPa